Time;durP1;ratioP1;P1;durP2;ratioP2;P2;SDS_P1;SDS_P2;PMS_P1;PMS_P2;Temp;Humidity;BMP_temperature;BMP_pressure;BME280_temperature;BME280_humidity;BME280_pressure;Samples;Min_cycle;Max_cycle;Signal;HPM_P1;HPM_P2
2022/03/23 00:00:43;;;;;;;;;;;8.80;99.90;;;;;;4896277;29;19931;-88
2022/03/23 00:03:16;;;;;;;;;;;8.70;99.90;;;;;;4884631;29;19966;-87
2022/03/23 00:05:47;;;;;;;;;;;8.70;99.90;;;;;;4894752;29;19928;-87
2022/03/23 00:08:14;;;;;;;;;;;8.70;99.90;;;;;;4904231;29;19927;-88
2022/03/23 00:10:43;;;;;;;;;;;8.60;99.90;;;;;;4898876;29;19943;-87
2022/03/23 00:13:13;;;;;;;;;;;8.60;99.90;;;;;;4895232;29;19936;-87
2022/03/23 00:15:41;;;;;;;;;;;8.50;99.90;;;;;;4900569;29;19934;-88
2022/03/23 00:18:09;;;;;;;;;;;8.40;99.90;;;;;;4889507;29;19932;-87
2022/03/23 00:20:38;;;;;;;;;;;8.40;99.90;;;;;;4891613;29;19928;-88
2022/03/23 00:23:08;;;;;;;;;;;8.30;99.90;;;;;;4902263;29;19939;-87
2022/03/23 00:25:36;;;;;;;;;;;8.20;99.90;;;;;;4872842;29;19932;-87
2022/03/23 00:28:05;;;;;;;;;;;8.10;99.90;;;;;;4900628;29;20398;-86
2022/03/23 00:30:34;;;;;;;;;;;8.10;99.90;;;;;;4907674;29;19931;-86
2022/03/23 00:33:22;;;;;;;;;;;8.10;99.90;;;;;;4893994;29;19935;-86
2022/03/23 00:35:50;;;;;;;;;;;8.00;99.90;;;;;;4889045;29;19931;-86
2022/03/23 00:38:21;;;;;;;;;;;8.00;99.90;;;;;;4873497;29;19928;-85
2022/03/23 00:40:49;;;;;;;;;;;7.90;99.90;;;;;;4854843;29;19939;-86
2022/03/23 00:43:20;;;;;;;;;;;7.90;99.90;;;;;;4878732;29;19934;-85
2022/03/23 00:45:48;;;;;;;;;;;7.80;99.90;;;;;;4889670;29;19927;-85
2022/03/23 00:48:18;;;;;;;;;;;7.80;99.90;;;;;;4889578;29;19940;-85
2022/03/23 00:50:45;;;;;;;;;;;7.70;99.90;;;;;;4888812;29;20103;-86
2022/03/23 00:53:13;;;;;;;;;;;7.80;99.90;;;;;;4887430;29;19943;-85
2022/03/23 00:55:42;;;;;;;;;;;7.60;99.90;;;;;;4872260;29;19931;-86
2022/03/23 00:58:10;;;;;;;;;;;7.60;99.90;;;;;;4887011;29;19935;-85
2022/03/23 01:00:45;;;;;;;;;;;7.60;99.90;;;;;;4869608;29;20300;-86
2022/03/23 01:03:13;;;;;;;;;;;7.50;99.90;;;;;;4882482;29;19935;-86
2022/03/23 01:05:43;;;;;;;;;;;7.40;99.90;;;;;;4886724;29;19935;-85
2022/03/23 01:08:11;;;;;;;;;;;7.40;99.90;;;;;;4886488;29;19931;-88
2022/03/23 01:10:39;;;;;;;;;;;7.40;99.90;;;;;;4870085;29;20380;-86
2022/03/23 01:13:10;;;;;;;;;;;7.40;99.90;;;;;;4887737;29;19943;-87
2022/03/23 01:15:38;;;;;;;;;;;7.40;99.90;;;;;;4888662;29;19931;-87
2022/03/23 01:18:06;;;;;;;;;;;7.30;99.90;;;;;;4890671;29;19934;-89
2022/03/23 01:20:36;;;;;;;;;;;7.30;99.90;;;;;;4873934;29;19928;-90
2022/03/23 01:23:05;;;;;;;;;;;7.20;99.90;;;;;;4887899;29;19935;-89
2022/03/23 01:25:34;;;;;;;;;;;7.90;99.90;;;;;;4886769;29;19935;-89
2022/03/23 01:28:03;;;;;;;;;;;7.20;99.90;;;;;;4883820;29;19928;-88
2022/03/23 01:30:32;;;;;;;;;;;7.10;99.90;;;;;;4869359;29;19928;-88
2022/03/23 01:33:03;;;;;;;;;;;7.10;99.90;;;;;;4886811;29;19932;-88
2022/03/23 01:35:30;;;;;;;;;;;7.10;99.90;;;;;;4886417;29;19935;-89
2022/03/23 01:37:59;;;;;;;;;;;7.10;99.90;;;;;;4887104;29;19939;-88
2022/03/23 01:40:34;;;;;;;;;;;7.10;99.90;;;;;;4902634;29;19942;-87
2022/03/23 01:43:02;;;;;;;;;;;7.10;99.90;;;;;;4887274;29;19934;-86
2022/03/23 01:45:30;;;;;;;;;;;7.10;99.90;;;;;;4870492;29;19927;-85
2022/03/23 01:47:59;;;;;;;;;;;7.00;99.90;;;;;;4904943;29;19927;-86
2022/03/23 01:50:27;;;;;;;;;;;7.00;99.90;;;;;;4894482;29;19927;-87
2022/03/23 01:52:55;;;;;;;;;;;7.00;99.90;;;;;;4874794;29;20446;-88
2022/03/23 01:55:23;;;;;;;;;;;6.90;99.90;;;;;;4904620;29;19934;-86
2022/03/23 01:57:52;;;;;;;;;;;6.90;99.90;;;;;;4907158;29;19947;-89
2022/03/23 02:00:20;;;;;;;;;;;6.80;99.90;;;;;;4904139;29;19927;-87
2022/03/23 02:02:48;;;;;;;;;;;6.80;99.90;;;;;;4873578;29;19943;-87
2022/03/23 02:05:17;;;;;;;;;;;6.80;99.90;;;;;;4893899;29;19931;-88
2022/03/23 02:07:56;;;;;;;;;;;6.80;99.90;;;;;;4904151;29;19938;-89
2022/03/23 02:10:28;;;;;;;;;;;6.80;99.90;;;;;;4872295;29;19939;-88
2022/03/23 02:13:10;;;;;;;;;;;6.70;99.90;;;;;;4874693;29;19927;-88
2022/03/23 02:15:39;;;;;;;;;;;6.70;99.90;;;;;;4872664;29;20026;-90
2022/03/23 02:18:06;;;;;;;;;;;6.70;99.90;;;;;;4888062;29;19927;-90
2022/03/23 02:20:36;;;;;;;;;;;6.70;99.90;;;;;;4888458;29;19935;-87
2022/03/23 02:23:05;;;;;;;;;;;6.70;99.90;;;;;;4889152;29;19928;-88
2022/03/23 02:25:34;;;;;;;;;;;6.70;99.90;;;;;;4905656;29;19931;-89
2022/03/23 02:28:03;;;;;;;;;;;6.70;99.90;;;;;;4872836;29;19927;-87
2022/03/23 02:30:31;;;;;;;;;;;6.60;99.90;;;;;;4898496;29;19927;-87
2022/03/23 02:33:00;;;;;;;;;;;6.60;99.90;;;;;;4894531;29;19927;-90
2022/03/23 02:35:28;;;;;;;;;;;6.60;99.90;;;;;;4918240;29;20269;-90
2022/03/23 02:37:57;;;;;;;;;;;6.60;99.90;;;;;;4905245;29;19927;-91
2022/03/23 02:40:25;;;;;;;;;;;6.50;99.90;;;;;;4906932;29;19930;-93
2022/03/23 02:42:53;;;;;;;;;;;6.50;99.90;;;;;;4925036;29;19934;-90
2022/03/23 02:45:21;;;;;;;;;;;6.50;99.90;;;;;;4907653;29;19928;-88
2022/03/23 02:47:50;;;;;;;;;;;6.90;99.90;;;;;;4926789;29;19927;-89
2022/03/23 02:50:18;;;;;;;;;;;6.50;99.90;;;;;;4877774;29;19934;-88
2022/03/23 03:03:55;;;;;;;;;;;6.30;99.90;;;;;;4906472;29;20379;-89
2022/03/23 03:06:23;;;;;;;;;;;6.30;99.90;;;;;;4890659;29;19928;-89
2022/03/23 03:08:51;;;;;;;;;;;6.30;99.90;;;;;;4878722;29;20318;-91
2022/03/23 03:11:20;;;;;;;;;;;6.30;99.90;;;;;;4890410;29;19927;-88
2022/03/23 03:13:49;;;;;;;;;;;5.50;99.90;;;;;;4890448;29;19943;-88
2022/03/23 03:16:19;;;;;;;;;;;6.30;99.90;;;;;;4878132;29;19935;-89
2022/03/23 03:18:46;;;;;;;;;;;6.20;99.90;;;;;;4894219;29;19928;-88
2022/03/23 03:21:15;;;;;;;;;;;6.30;99.90;;;;;;4912971;29;19946;-88
2022/03/23 03:23:43;;;;;;;;;;;6.20;99.90;;;;;;4915286;29;19927;-89
2022/03/23 03:26:13;;;;;;;;;;;6.20;99.90;;;;;;4883557;29;19931;-89
2022/03/23 03:28:41;;;;;;;;;;;6.20;99.90;;;;;;4899511;29;19934;-88
2022/03/23 03:31:11;;;;;;;;;;;6.20;99.90;;;;;;4899324;29;19928;-87
2022/03/23 03:33:39;;;;;;;;;;;6.10;99.90;;;;;;4917190;29;19927;-88
2022/03/23 03:36:07;;;;;;;;;;;6.10;99.90;;;;;;4900621;29;19928;-89
2022/03/23 03:38:36;;;;;;;;;;;6.10;99.90;;;;;;4883779;29;19938;-89
2022/03/23 03:41:04;;;;;;;;;;;6.00;99.90;;;;;;4898237;29;19927;-89
2022/03/23 03:43:33;;;;;;;;;;;6.00;99.90;;;;;;4896958;29;19978;-89
2022/03/23 03:46:01;;;;;;;;;;;6.00;99.90;;;;;;4898144;29;19927;-88
2022/03/23 03:48:29;;;;;;;;;;;6.00;99.90;;;;;;4884008;29;19935;-89
2022/03/23 03:50:59;;;;;;;;;;;5.90;99.90;;;;;;4912005;29;19927;-88
2022/03/23 03:53:27;;;;;;;;;;;5.90;99.90;;;;;;4895474;29;19927;-86
2022/03/23 03:56:06;;;;;;;;;;;5.80;99.90;;;;;;4906704;29;19931;-88
2022/03/23 03:58:33;;;;;;;;;;;5.80;99.90;;;;;;4909088;29;19943;-88
2022/03/23 04:01:01;;;;;;;;;;;5.80;99.90;;;;;;4907699;29;19927;-88
2022/03/23 04:03:32;;;;;;;;;;;5.80;99.90;;;;;;4919022;29;19927;-90
2022/03/23 04:06:03;;;;;;;;;;;5.80;99.90;;;;;;4891760;29;19939;-89
2022/03/23 04:08:31;;;;;;;;;;;5.80;99.90;;;;;;4914667;29;19934;-91
2022/03/23 04:10:59;;;;;;;;;;;6.00;99.90;;;;;;4928219;29;19931;-90
2022/03/23 04:13:26;;;;;;;;;;;5.70;99.90;;;;;;4912198;29;19927;-88
2022/03/23 04:15:54;;;;;;;;;;;5.70;99.90;;;;;;4910861;29;19950;-89
2022/03/23 04:18:22;;;;;;;;;;;5.70;99.90;;;;;;4911501;29;19930;-89
2022/03/23 04:20:50;;;;;;;;;;;5.60;99.90;;;;;;4911186;29;20303;-88
2022/03/23 04:23:18;;;;;;;;;;;5.60;99.90;;;;;;4899599;29;19927;-89
2022/03/23 04:25:45;;;;;;;;;;;5.60;99.90;;;;;;4916292;29;19927;-89
2022/03/23 04:28:14;;;;;;;;;;;5.60;99.90;;;;;;4895708;29;19947;-90
2022/03/23 04:30:42;;;;;;;;;;;5.60;99.90;;;;;;4911674;29;19934;-90
2022/03/23 04:33:11;;;;;;;;;;;5.20;99.90;;;;;;4910685;29;19928;-88
2022/03/23 04:35:39;;;;;;;;;;;5.50;99.90;;;;;;4908656;29;19927;-89
2022/03/23 04:38:07;;;;;;;;;;;5.50;99.90;;;;;;4894317;29;19940;-89
2022/03/23 04:40:36;;;;;;;;;;;5.60;99.90;;;;;;4894077;29;19958;-88
2022/03/23 04:43:04;;;;;;;;;;;5.40;99.90;;;;;;4878828;29;19931;-87
2022/03/23 04:45:32;;;;;;;;;;;5.40;99.90;;;;;;4894157;29;19938;-89
2022/03/23 04:47:59;;;;;;;;;;;5.30;99.90;;;;;;4909893;29;20317;-89
2022/03/23 04:50:27;;;;;;;;;;;5.30;99.90;;;;;;4907704;29;19934;-90
2022/03/23 04:52:55;;;;;;;;;;;5.20;99.90;;;;;;4891035;29;19927;-90
2022/03/23 04:55:24;;;;;;;;;;;5.20;99.90;;;;;;4907711;29;19931;-90
2022/03/23 04:57:52;;;;;;;;;;;4.80;99.90;;;;;;4906946;29;19928;-88
2022/03/23 05:00:21;;;;;;;;;;;5.20;99.90;;;;;;4890940;29;19927;-90
2022/03/23 05:02:50;;;;;;;;;;;5.10;99.90;;;;;;4901384;29;19931;-89
2022/03/23 05:05:18;;;;;;;;;;;5.10;99.90;;;;;;4908846;29;19927;-90
2022/03/23 05:07:46;;;;;;;;;;;5.10;99.90;;;;;;4904763;29;19938;-87
2022/03/23 05:10:14;;;;;;;;;;;5.10;99.90;;;;;;4922398;29;19931;-89
2022/03/23 05:12:44;;;;;;;;;;;5.10;99.90;;;;;;4904952;29;19934;-90
2022/03/23 05:15:13;;;;;;;;;;;5.10;99.90;;;;;;4902371;29;20335;-89
2022/03/23 05:17:41;;;;;;;;;;;5.10;99.90;;;;;;4904729;29;19927;-88
2022/03/23 05:20:10;;;;;;;;;;;5.00;99.90;;;;;;4920013;29;20478;-88
2022/03/23 05:22:38;;;;;;;;;;;5.00;99.90;;;;;;4921800;29;19934;-88
2022/03/23 05:25:06;;;;;;;;;;;5.00;99.90;;;;;;4904905;29;19927;-88
2022/03/23 05:27:38;;;;;;;;;;;5.00;99.90;;;;;;4887649;29;20319;-89
2022/03/23 05:30:07;;;;;;;;;;;4.90;99.90;;;;;;4884518;29;19927;-88
2022/03/23 05:32:35;;;;;;;;;;;5.00;99.90;;;;;;4886192;29;19927;-88
2022/03/23 05:35:06;;;;;;;;;;;5.00;99.90;;;;;;4885519;29;19928;-88
2022/03/23 05:37:37;;;;;;;;;;;5.00;99.90;;;;;;4902341;29;19931;-89
2022/03/23 05:40:10;;;;;;;;;;;4.90;99.90;;;;;;4912896;29;19928;-88
2022/03/23 05:42:38;;;;;;;;;;;5.00;99.90;;;;;;4921917;29;19938;-87
2022/03/23 05:45:06;;;;;;;;;;;5.00;99.90;;;;;;4920616;29;19931;-88
2022/03/23 05:47:34;;;;;;;;;;;5.00;99.90;;;;;;4895953;29;19927;-87
2022/03/23 05:50:05;;;;;;;;;;;5.00;99.90;;;;;;4907520;29;20323;-87
2022/03/23 05:52:33;;;;;;;;;;;5.00;99.90;;;;;;4908716;29;19934;-86
2022/03/23 05:55:07;;;;;;;;;;;5.00;99.90;;;;;;4915272;29;19927;-86
2022/03/23 05:57:35;;;;;;;;;;;5.00;99.90;;;;;;4927402;29;20303;-87
2022/03/23 06:00:05;;;;;;;;;;;5.00;99.90;;;;;;4893540;29;19935;-86
2022/03/23 06:02:53;;;;;;;;;;;5.00;99.90;;;;;;4903767;29;19924;-87
2022/03/23 06:05:24;;;;;;;;;;;5.00;99.90;;;;;;4856702;29;19928;-88
2022/03/23 06:07:54;;;;;;;;;;;5.10;99.90;;;;;;4900236;29;19932;-88
2022/03/23 06:10:22;;;;;;;;;;;5.00;99.90;;;;;;4892618;29;19931;-88
2022/03/23 06:12:50;;;;;;;;;;;5.00;99.90;;;;;;4905963;29;19931;-86
2022/03/23 06:15:21;;;;;;;;;;;4.90;99.90;;;;;;4871189;29;19943;-86
2022/03/23 06:17:49;;;;;;;;;;;4.90;99.90;;;;;;4853926;29;19932;-88
2022/03/23 06:20:17;;;;;;;;;;;5.00;99.90;;;;;;4866410;29;19936;-87
2022/03/23 06:22:46;;;;;;;;;;;5.00;99.90;;;;;;4884737;29;19928;-87
2022/03/23 06:25:14;;;;;;;;;;;5.00;99.90;;;;;;4870076;29;19927;-89
2022/03/23 06:27:41;;;;;;;;;;;5.00;99.90;;;;;;4898379;29;19935;-87
2022/03/23 06:30:24;;;;;;;;;;;5.00;99.90;;;;;;4870348;29;19927;-88
2022/03/23 06:32:56;;;;;;;;;;;5.70;99.90;;;;;;4870421;29;19928;-87
2022/03/23 06:35:26;;;;;;;;;;;5.00;99.90;;;;;;4891166;29;19934;-88
2022/03/23 06:37:56;;;;;;;;;;;5.00;99.90;;;;;;4908520;29;19931;-89
2022/03/23 06:40:24;;;;;;;;;;;5.10;99.90;;;;;;4896363;29;19932;-87
2022/03/23 06:42:52;;;;;;;;;;;5.10;99.90;;;;;;4906617;29;19934;-88
2022/03/23 06:45:21;;;;;;;;;;;5.20;99.90;;;;;;4874449;29;19927;-89
2022/03/23 06:47:49;;;;;;;;;;;5.20;99.90;;;;;;4887944;29;19931;-87
2022/03/23 06:50:16;;;;;;;;;;;5.60;99.90;;;;;;4887029;29;19931;-88
2022/03/23 06:52:46;;;;;;;;;;;5.30;99.90;;;;;;4905127;29;19938;-88
2022/03/23 06:55:16;;;;;;;;;;;5.30;99.90;;;;;;4892216;29;19931;-86
2022/03/23 06:57:44;;;;;;;;;;;5.30;99.90;;;;;;4895404;29;19935;-87
2022/03/23 07:00:13;;;;;;;;;;;5.40;99.90;;;;;;4902970;29;19927;-86
2022/03/23 07:02:42;;;;;;;;;;;5.40;99.90;;;;;;4897880;29;19927;-87
2022/03/23 07:05:13;;;;;;;;;;;5.70;99.90;;;;;;4905305;29;19928;-86
2022/03/23 07:09:31;;;;;;;;;;;5.50;99.90;;;;;;4898527;29;19931;-87
2022/03/23 07:10:31;;;;;;;;;;;5.60;99.90;;;;;;4904331;29;19943;-90
2022/03/23 07:12:59;;;;;;;;;;;5.70;99.90;;;;;;4887421;29;19935;-87
2022/03/23 07:15:28;;;;;;;;;;;5.70;99.90;;;;;;4886542;29;19932;-87
2022/03/23 07:17:57;;;;;;;;;;;5.80;99.90;;;;;;4886606;29;19928;-88
2022/03/23 07:20:29;;;;;;;;;;;5.90;99.90;;;;;;4903246;29;20698;-88
2022/03/23 07:22:58;;;;;;;;;;;5.90;99.90;;;;;;4906858;29;19943;-89
2022/03/23 07:25:27;;;;;;;;;;;6.00;99.90;;;;;;4894877;29;19927;-87
2022/03/23 07:27:56;;;;;;;;;;;6.10;99.90;;;;;;4887320;29;20375;-87
2022/03/23 07:30:25;;;;;;;;;;;6.20;99.90;;;;;;4900846;29;19928;-86
2022/03/23 07:32:53;;;;;;;;;;;6.30;99.90;;;;;;4884893;29;19927;-85
2022/03/23 07:35:24;;;;;;;;;;;6.30;99.90;;;;;;4887535;29;19947;-88
2022/03/23 07:37:53;;;;;;;;;;;6.50;99.90;;;;;;4905059;29;19931;-86
2022/03/23 07:40:21;;;;;;;;;;;5.40;99.90;;;;;;4896973;29;19934;-87
2022/03/23 07:42:59;;;;;;;;;;;6.70;99.90;;;;;;4893256;29;19951;-85
2022/03/23 07:45:33;;;;;;;;;;;6.80;99.90;;;;;;4871986;29;19936;-82
2022/03/23 07:48:02;;;;;;;;;;;6.20;99.90;;;;;;4900054;29;19927;-83
2022/03/23 07:50:30;;;;;;;;;;;7.10;99.90;;;;;;4915593;29;19935;-83
2022/03/23 07:52:58;;;;;;;;;;;7.20;99.90;;;;;;4880523;29;19927;-83
2022/03/23 07:55:26;;;;;;;;;;;7.20;99.90;;;;;;4873223;29;19931;-83
2022/03/23 07:57:53;;;;;;;;;;;7.40;99.90;;;;;;4875363;29;19931;-83
2022/03/23 08:00:21;;;;;;;;;;;7.50;99.90;;;;;;4890070;29;19927;-82
2022/03/23 08:02:50;;;;;;;;;;;7.60;99.90;;;;;;4901666;29;19935;-82
2022/03/23 08:05:22;;;;;;;;;;;7.60;99.90;;;;;;4894736;29;19935;-81
2022/03/23 08:07:52;;;;;;;;;;;7.80;99.90;;;;;;4909596;29;19927;-84
2022/03/23 08:10:19;;;;;;;;;;;7.90;99.90;;;;;;4918988;29;19942;-81
2022/03/23 08:12:47;;;;;;;;;;;8.00;99.90;;;;;;4883178;29;19931;-82
2022/03/23 08:15:20;;;;;;;;;;;8.10;99.90;;;;;;4910968;29;19935;-85
2022/03/23 08:17:52;;;;;;;;;;;8.20;99.90;;;;;;4890926;29;19938;-83
2022/03/23 08:20:32;;;;;;;;;;;8.30;99.90;;;;;;4906775;29;19934;-82
2022/03/23 08:23:11;;;;;;;;;;;8.40;99.90;;;;;;4895550;29;19934;-82
2022/03/23 08:25:41;;;;;;;;;;;8.60;99.90;;;;;;4889488;29;19935;-82
2022/03/23 08:28:10;;;;;;;;;;;8.60;99.90;;;;;;4893663;29;19938;-83
2022/03/23 08:30:40;;;;;;;;;;;8.70;99.90;;;;;;4908682;29;19935;-83
2022/03/23 08:33:11;;;;;;;;;;;8.90;99.90;;;;;;4907747;29;19927;-82
2022/03/23 08:35:39;;;;;;;;;;;9.00;99.90;;;;;;4906789;29;19939;-83
2022/03/23 08:38:07;;;;;;;;;;;9.10;99.90;;;;;;4912180;29;19939;-83
2022/03/23 08:40:35;;;;;;;;;;;9.20;99.90;;;;;;4902455;29;19935;-84
2022/03/23 08:43:03;;;;;;;;;;;9.40;99.90;;;;;;4900559;29;19931;-83
2022/03/23 08:45:33;;;;;;;;;;;9.50;99.90;;;;;;4882315;29;19931;-83
2022/03/23 08:48:03;;;;;;;;;;;9.60;99.90;;;;;;4913822;29;19927;-85
2022/03/23 08:50:31;;;;;;;;;;;9.70;99.90;;;;;;4899793;29;21365;-84
2022/03/23 08:53:02;;;;;;;;;;;9.80;99.90;;;;;;4913586;29;19945;-84
2022/03/23 08:55:31;;;;;;;;;;;9.90;99.90;;;;;;4924969;29;19934;-84
2022/03/23 08:58:06;;;;;;;;;;;10.40;99.90;;;;;;4915310;29;20381;-83
2022/03/23 09:00:36;;;;;;;;;;;10.20;99.90;;;;;;4912954;29;19931;-83
2022/03/23 09:03:04;;;;;;;;;;;10.60;99.90;;;;;;4896842;29;19936;-83
2022/03/23 09:05:33;;;;;;;;;;;10.40;99.90;;;;;;4896073;29;19927;-85
2022/03/23 09:08:04;;;;;;;;;;;10.50;99.90;;;;;;4894184;29;19938;-84
2022/03/23 09:10:32;;;;;;;;;;;10.60;99.90;;;;;;4911041;29;19931;-83
2022/03/23 09:13:00;;;;;;;;;;;10.70;99.90;;;;;;4913487;29;19927;-85
2022/03/23 09:15:32;;;;;;;;;;;10.90;99.90;;;;;;4878586;29;19936;-83
2022/03/23 09:18:01;;;;;;;;;;;10.90;99.90;;;;;;4895104;29;19935;-82
2022/03/23 09:20:31;;;;;;;;;;;11.10;99.90;;;;;;4910622;29;19927;-83
2022/03/23 09:23:00;;;;;;;;;;;11.20;99.90;;;;;;4913158;29;19927;-83
2022/03/23 09:25:28;;;;;;;;;;;11.30;99.90;;;;;;4917444;29;19938;-84
2022/03/23 09:27:56;;;;;;;;;;;11.50;99.90;;;;;;4894839;29;19923;-85
2022/03/23 09:30:25;;;;;;;;;;;11.60;99.90;;;;;;4919170;29;19935;-87
2022/03/23 09:32:57;;;;;;;;;;;11.80;99.90;;;;;;4889989;29;19938;-84
2022/03/23 09:35:29;;;;;;;;;;;11.90;99.90;;;;;;4879716;29;20035;-85
2022/03/23 09:38:04;;;;;;;;;;;12.00;99.90;;;;;;4898182;29;20215;-83
2022/03/23 09:40:33;;;;;;;;;;;12.10;99.90;;;;;;4911221;29;19937;-84
2022/03/23 09:43:08;;;;;;;;;;;12.30;99.90;;;;;;4904852;29;19943;-84
2022/03/23 09:45:51;;;;;;;;;;;12.40;99.90;;;;;;4893246;29;20575;-85
2022/03/23 09:48:26;;;;;;;;;;;12.50;99.90;;;;;;4899025;29;19927;-83
2022/03/23 09:50:55;;;;;;;;;;;12.60;99.90;;;;;;4891539;29;19927;-86
2022/03/23 09:53:24;;;;;;;;;;;12.70;99.90;;;;;;4907408;29;19927;-84
2022/03/23 09:55:54;;;;;;;;;;;12.80;99.90;;;;;;4901126;29;19928;-89
2022/03/23 09:58:24;;;;;;;;;;;12.90;99.90;;;;;;4905228;29;19931;-84
2022/03/23 10:00:56;;;;;;;;;;;13.10;99.90;;;;;;4884700;29;19935;-84
2022/03/23 10:03:57;;;;;;;;;;;13.20;99.90;;;;;;4891543;29;19942;-84
2022/03/23 10:06:29;;;;;;;;;;;13.30;99.90;;;;;;4896889;29;19931;-84
2022/03/23 10:09:16;;;;;;;;;;;13.40;99.90;;;;;;4897907;29;19935;-84
2022/03/23 10:11:51;;;;;;;;;;;13.50;99.90;;;;;;4882570;29;19931;-83
2022/03/23 10:14:46;;;;;;;;;;;13.60;99.90;;;;;;4896024;29;20639;-83
2022/03/23 10:17:33;;;;;;;;;;;13.80;99.90;;;;;;4877820;29;19931;-84
2022/03/23 10:20:03;;;;;;;;;;;13.90;99.90;;;;;;4902559;29;19927;-83
2022/03/23 10:22:34;;;;;;;;;;;14.10;99.90;;;;;;4897138;29;19938;-84
2022/03/23 10:25:10;;;;;;;;;;;14.20;99.90;;;;;;4894999;29;19938;-85
2022/03/23 10:27:38;;;;;;;;;;;14.30;99.90;;;;;;4894262;29;20507;-84
2022/03/23 10:30:07;;;;;;;;;;;15.10;99.90;;;;;;4896867;29;19934;-84
2022/03/23 10:32:36;;;;;;;;;;;14.60;99.90;;;;;;4883704;29;19931;-84
2022/03/23 10:35:09;;;;;;;;;;;14.70;99.90;;;;;;4906380;29;20268;-83
2022/03/23 10:37:37;;;;;;;;;;;15.10;99.90;;;;;;4878267;29;19931;-85
2022/03/23 10:40:09;;;;;;;;;;;14.90;99.90;;;;;;4886750;29;19932;-89
2022/03/23 10:42:40;;;;;;;;;;;15.00;99.90;;;;;;4892043;29;20376;-86
2022/03/23 10:45:21;;;;;;;;;;;15.10;99.90;;;;;;4892093;29;19936;-84
2022/03/23 10:47:49;;;;;;;;;;;15.30;99.90;;;;;;4889091;29;19927;-89
2022/03/23 10:50:26;;;;;;;;;;;14.50;99.90;;;;;;4894648;29;19951;-85
2022/03/23 10:53:04;;;;;;;;;;;15.50;98.70;;;;;;4889816;29;19934;-86
2022/03/23 10:55:35;;;;;;;;;;;15.70;98.50;;;;;;4879324;29;19935;-85
2022/03/23 10:58:07;;;;;;;;;;;15.80;98.20;;;;;;4890727;29;19935;-85
2022/03/23 11:00:40;;;;;;;;;;;16.00;98.50;;;;;;4891559;29;19938;-84
2022/03/23 11:03:09;;;;;;;;;;;16.00;98.50;;;;;;4890047;29;19938;-85
2022/03/23 11:05:39;;;;;;;;;;;16.00;98.30;;;;;;4871471;29;19939;-84
2022/03/23 11:08:08;;;;;;;;;;;16.30;96.80;;;;;;4894656;29;19946;-84
2022/03/23 11:16:22;;;;;;;;;;;16.80;95.20;;;;;;4897409;29;19950;-85
2022/03/23 11:19:12;;;;;;;;;;;17.00;94.30;;;;;;4871383;29;19953;-84
2022/03/23 11:22:02;;;;;;;;;;;17.10;94.70;;;;;;4881522;29;19936;-85
2022/03/23 11:24:36;;;;;;;;;;;17.30;94.10;;;;;;4906962;29;19936;-86
2022/03/23 11:27:11;;;;;;;;;;;17.40;93.10;;;;;;4895234;29;19934;-85
2022/03/23 11:29:40;;;;;;;;;;;17.60;91.10;;;;;;4891701;29;19927;-85
2022/03/23 11:32:12;;;;;;;;;;;17.70;87.40;;;;;;4892568;29;19955;-85
2022/03/23 11:34:41;;;;;;;;;;;17.00;90.00;;;;;;4893533;29;19927;-84
2022/03/23 11:37:12;;;;;;;;;;;18.00;91.20;;;;;;4896711;29;19942;-85
2022/03/23 11:39:47;;;;;;;;;;;18.10;84.70;;;;;;4886179;29;19983;-85
2022/03/23 11:42:22;;;;;;;;;;;18.20;87.30;;;;;;4901809;29;19947;-86
2022/03/23 11:44:56;;;;;;;;;;;18.30;88.50;;;;;;4900262;29;19938;-85
2022/03/23 11:47:25;;;;;;;;;;;18.30;86.40;;;;;;4901938;29;19942;-84
2022/03/23 11:50:04;;;;;;;;;;;18.40;84.30;;;;;;4903652;29;19931;-84
2022/03/23 11:52:56;;;;;;;;;;;18.10;82.10;;;;;;4908463;29;19938;-84
2022/03/23 11:55:42;;;;;;;;;;;18.40;82.40;;;;;;4905681;29;19931;-85
2022/03/23 11:58:23;;;;;;;;;;;18.40;81.30;;;;;;4887069;29;19928;-84
2022/03/23 12:01:10;;;;;;;;;;;18.50;81.60;;;;;;4907287;29;19927;-87
2022/03/23 12:03:53;;;;;;;;;;;18.60;82.00;;;;;;4895742;29;19961;-86
2022/03/23 12:06:36;;;;;;;;;;;18.80;80.90;;;;;;4908649;29;19931;-84
2022/03/23 12:09:32;;;;;;;;;;;18.80;81.60;;;;;;4897105;29;19931;-90
2022/03/23 12:12:06;;;;;;;;;;;18.90;81.00;;;;;;4881409;29;19943;-90
2022/03/23 12:14:36;;;;;;;;;;;19.00;81.60;;;;;;4913872;29;19946;-89
2022/03/23 12:17:11;;;;;;;;;;;19.10;82.00;;;;;;4907432;29;19935;-87
2022/03/23 12:20:20;;;;;;;;;;;19.50;78.40;;;;;;4905872;29;19936;-86
2022/03/23 12:22:53;;;;;;;;;;;19.30;80.50;;;;;;4907886;29;19951;-83
2022/03/23 12:25:38;;;;;;;;;;;19.50;77.60;;;;;;4906331;29;19932;-86
2022/03/23 12:28:22;;;;;;;;;;;19.40;77.80;;;;;;4890644;29;19938;-89
2022/03/23 12:30:55;;;;;;;;;;;19.80;76.70;;;;;;4889478;29;19931;-86
2022/03/23 12:33:26;;;;;;;;;;;20.00;72.40;;;;;;4915410;29;19935;-88
2022/03/23 12:36:01;;;;;;;;;;;19.70;71.30;;;;;;4908212;29;19934;-84
2022/03/23 12:38:38;;;;;;;;;;;20.40;69.70;;;;;;4910556;29;19946;-84
2022/03/23 12:41:11;;;;;;;;;;;20.50;71.30;;;;;;4903877;29;19935;-83
2022/03/23 12:43:39;;;;;;;;;;;20.40;70.80;;;;;;4898810;29;19939;-85
2022/03/23 12:46:21;;;;;;;;;;;20.50;69.80;;;;;;4906259;29;19923;-84
2022/03/23 12:57:52;;;;;;;;;;;20.80;66.50;;;;;;4903778;29;19946;-85
2022/03/23 13:00:27;;;;;;;;;;;20.90;65.30;;;;;;4893904;29;19928;-85
2022/03/23 13:03:06;;;;;;;;;;;21.00;66.40;;;;;;4908522;29;19928;-85
2022/03/23 13:05:58;;;;;;;;;;;21.20;66.70;;;;;;4897386;29;19931;-86
2022/03/23 13:08:46;;;;;;;;;;;21.30;65.80;;;;;;4897279;29;19935;-88
2022/03/23 13:11:22;;;;;;;;;;;21.50;66.70;;;;;;4897050;29;19931;-84
2022/03/23 13:13:55;;;;;;;;;;;21.60;64.60;;;;;;4899586;29;19934;-86
2022/03/23 13:16:24;;;;;;;;;;;21.60;62.60;;;;;;4896982;29;19931;-88
2022/03/23 13:18:56;;;;;;;;;;;21.60;62.00;;;;;;4886297;29;19934;-85
2022/03/23 13:21:28;;;;;;;;;;;21.70;61.20;;;;;;4896863;29;19939;-87
2022/03/23 13:24:01;;;;;;;;;;;21.80;62.40;;;;;;4898100;29;20334;-87
2022/03/23 13:26:40;;;;;;;;;;;21.80;62.00;;;;;;4917206;29;19935;-85
2022/03/23 13:29:15;;;;;;;;;;;22.00;61.00;;;;;;4903634;29;19935;-86
2022/03/23 13:31:44;;;;;;;;;;;22.00;58.60;;;;;;4900762;29;19938;-85
2022/03/23 13:34:14;;;;;;;;;;;22.00;61.40;;;;;;4900929;29;19931;-85
2022/03/23 13:36:43;;;;;;;;;;;22.10;59.00;;;;;;4903535;29;19928;-83
2022/03/23 13:39:13;;;;;;;;;;;22.20;61.10;;;;;;4896380;29;19943;-84
2022/03/23 13:47:30;;;;;;;;;;;22.30;57.20;;;;;;4886297;29;19936;-84
2022/03/23 13:50:13;;;;;;;;;;;22.10;58.00;;;;;;4899605;29;19939;-86
2022/03/23 13:52:56;;;;;;;;;;;22.00;57.00;;;;;;4898631;29;19939;-86
2022/03/23 13:55:34;;;;;;;;;;;22.00;58.70;;;;;;4901075;29;20446;-88
2022/03/23 13:58:05;;;;;;;;;;;22.00;57.00;;;;;;4899418;29;19932;-87
2022/03/23 14:00:33;;;;;;;;;;;22.10;57.60;;;;;;4877958;29;19927;-86
2022/03/23 14:03:03;;;;;;;;;;;22.10;56.40;;;;;;4896198;29;19935;-84
2022/03/23 14:05:33;;;;;;;;;;;22.30;56.40;;;;;;4883491;29;19934;-85
2022/03/23 14:08:05;;;;;;;;;;;22.50;57.20;;;;;;4900709;29;19935;-84
2022/03/23 14:10:35;;;;;;;;;;;22.80;57.50;;;;;;4899861;29;19947;-85
2022/03/23 14:13:08;;;;;;;;;;;23.10;55.70;;;;;;4886323;29;19936;-84
2022/03/23 14:15:49;;;;;;;;;;;23.20;56.70;;;;;;4894576;29;20355;-87
2022/03/23 14:18:35;;;;;;;;;;;22.70;56.00;;;;;;4889265;29;19928;-85
2022/03/23 14:21:44;;;;;;;;;;;;;;;;;;;;;
2022/03/23 14:24:15;;;;;;;;;;;23.90;56.10;;;;;;4884680;29;19934;-87
2022/03/23 14:26:43;;;;;;;;;;;24.10;55.00;;;;;;4901719;29;19927;-88
2022/03/23 14:29:22;;;;;;;;;;;24.30;54.50;;;;;;4898900;29;19935;-87
2022/03/23 14:31:56;;;;;;;;;;;24.40;54.80;;;;;;4904516;29;19927;-86
2022/03/23 14:34:36;;;;;;;;;;;24.40;53.00;;;;;;4897596;29;19928;-89
2022/03/23 14:37:08;;;;;;;;;;;24.50;53.00;;;;;;4901661;29;20366;-88
2022/03/23 14:39:47;;;;;;;;;;;24.80;54.00;;;;;;4903125;29;19931;-87
2022/03/23 14:42:19;;;;;;;;;;;25.20;53.40;;;;;;4899303;29;19931;-86
2022/03/23 14:44:55;;;;;;;;;;;25.50;53.50;;;;;;4897110;29;19935;-85
2022/03/23 14:47:46;;;;;;;;;;;25.70;52.90;;;;;;4897254;29;19932;-93
2022/03/23 14:50:16;;;;;;;;;;;25.90;52.90;;;;;;4886088;29;19939;-89
2022/03/23 14:52:46;;;;;;;;;;;25.80;52.80;;;;;;4893622;29;19935;-85
2022/03/23 14:55:17;;;;;;;;;;;25.80;53.10;;;;;;4896574;29;19932;-90
2022/03/23 14:58:07;;;;;;;;;;;25.80;53.10;;;;;;4902778;29;19931;-89
2022/03/23 15:00:37;;;;;;;;;;;26.00;54.40;;;;;;4901587;29;19932;-87
2022/03/23 15:03:06;;;;;;;;;;;26.00;53.10;;;;;;4900244;29;19936;-87
2022/03/23 15:14:05;;;;;;;;;;;25.80;52.20;;;;;;4893820;29;19938;-89
2022/03/23 15:16:39;;;;;;;;;;;25.90;53.00;;;;;;4892667;29;19931;-88
2022/03/23 15:19:13;;;;;;;;;;;25.90;52.70;;;;;;4899338;29;19931;-93
2022/03/23 15:21:46;;;;;;;;;;;25.90;53.10;;;;;;4900831;29;19950;-89
2022/03/23 15:24:17;;;;;;;;;;;25.70;53.00;;;;;;4900722;29;19942;-88
2022/03/23 15:26:46;;;;;;;;;;;25.30;52.50;;;;;;4900409;29;19931;-88
2022/03/23 15:29:14;;;;;;;;;;;25.00;52.50;;;;;;4899873;29;19932;-91
2022/03/23 15:31:47;;;;;;;;;;;24.80;52.30;;;;;;4902433;29;19928;-87